Wetterstation Vordersexau
Wetterdaten: Woche 04.05.15 - 10.05.15 (KW19)
Datum Zeit Temp. A. Feuchte A. Luftdruck Regen Wind Richtung Taupunkt Windchill Windben
04.05.2015 00:00 15,6 C 81 % 1007,8 hPa 0,0 l/m 0,0 km/h W-SW 12,3 C 15,6 C 0,0 km/h
04.05.2015 01:00 14,6 C 80 % 1008,3 hPa 0,0 l/m 0,0 km/h W-NW 11,2 C 14,6 C 0,0 km/h
04.05.2015 02:00 13,9 C 78 % 1008,5 hPa 0,0 l/m 0,0 km/h NW 10,1 C 13,9 C 0,0 km/h
04.05.2015 03:00 14,0 C 75 % 1008,2 hPa 0,0 l/m 0,0 km/h NW 9,6 C 14,0 C 0,0 km/h
04.05.2015 04:00 13,8 C 73 % 1008,4 hPa 0,0 l/m 0,0 km/h NW 9,0 C 13,8 C 0,0 km/h
04.05.2015 05:00 13,4 C 73 % 1008,5 hPa 0,0 l/m 0,0 km/h NW 8,7 C 13,4 C 0,0 km/h
04.05.2015 06:00 13,5 C 71 % 1008,8 hPa 0,0 l/m 0,0 km/h NW 8,3 C 13,5 C 0,0 km/h
04.05.2015 07:00 13,5 C 71 % 1009,1 hPa 0,0 l/m 0,0 km/h N 8,3 C 13,5 C 0,0 km/h
04.05.2015 08:00 18,7 C 79 % 1009,3 hPa 0,0 l/m 0,0 km/h S-SW 15,0 C 18,7 C 0,0 km/h
04.05.2015 09:00 20,8 C 82 % 1009,2 hPa 0,4 l/m 0,0 km/h W 17,6 C 20,8 C 0,0 km/h
04.05.2015 10:00 22,5 C 69 % 1008,9 hPa 0,0 l/m 10,4 km/h W-SW 16,5 C 21,3 C 5,8 km/h
04.05.2015 11:00 22,4 C 70 % 1009,2 hPa 0,0 l/m 13,6 km/h W 16,7 C 20,4 C 7,6 km/h
04.05.2015 12:00 23,1 C 65 % 1009,2 hPa 0,0 l/m 0,0 km/h W 16,2 C 23,1 C 0,0 km/h
04.05.2015 13:00 25,2 C 61 % 1008,5 hPa 0,0 l/m 0,0 km/h W 17,1 C 25,2 C 0,0 km/h
04.05.2015 14:00 26,3 C 55 % 1008,0 hPa 0,0 l/m 0,0 km/h N-NO 16,5 C 26,3 C 0,0 km/h
04.05.2015 15:00 27,5 C 52 % 1006,9 hPa 0,0 l/m 0,0 km/h O-SO 16,7 C 27,5 C 0,0 km/h
04.05.2015 16:00 31,1 C 46 % 1006,4 hPa 0,0 l/m 0,0 km/h S 18,1 C 31,1 C 0,0 km/h
04.05.2015 17:00 27,5 C 48 % 1005,3 hPa 0,0 l/m 0,0 km/h SO 15,5 C 27,5 C 0,0 km/h
04.05.2015 18:00 23,0 C 60 % 1004,6 hPa 0,0 l/m 6,5 km/h SO 14,8 C 23,0 C 3,6 km/h
04.05.2015 19:00 20,8 C 66 % 1004,2 hPa 0,0 l/m 0,0 km/h SO 14,2 C 20,8 C 0,0 km/h
04.05.2015 20:00 20,2 C 64 % 1003,6 hPa 0,0 l/m 14,3 km/h SO 13,2 C 17,7 C 7,9 km/h
04.05.2015 21:00 20,5 C 64 % 1003,8 hPa 0,0 l/m 0,0 km/h SO 13,5 C 20,5 C 0,0 km/h
04.05.2015 22:00 20,4 C 64 % 1002,6 hPa 0,0 l/m 5,8 km/h O-SO 13,4 C 20,4 C 3,2 km/h
04.05.2015 23:00 18,9 C 69 % 1001,3 hPa 0,0 l/m 0,0 km/h N 13,1 C 18,9 C 0,0 km/h
05.05.2015 00:00 17,5 C 73 % 1000,8 hPa 0,0 l/m 0,0 km/h N-NO 12,6 C 17,5 C 0,0 km/h
05.05.2015 01:00 13,9 C 80 % 1000,9 hPa 0,0 l/m 0,0 km/h N-NO 10,5 C 13,9 C 0,0 km/h
05.05.2015 02:00 14,4 C 83 % 1000,7 hPa 0,0 l/m 0,0 km/h O-NO 11,5 C 14,4 C 0,0 km/h
05.05.2015 03:00 14,4 C 84 % 1000,6 hPa 0,0 l/m 0,0 km/h N-NW 11,7 C 14,4 C 0,0 km/h
05.05.2015 04:00 15,1 C 84 % 1000,5 hPa 0,0 l/m 0,0 km/h SO 12,4 C 15,1 C 0,0 km/h
05.05.2015 05:00 14,8 C 84 % 999,6 hPa 0,0 l/m 0,0 km/h O-SO 12,1 C 14,8 C 0,0 km/h
05.05.2015 06:00 15,3 C 84 % 999,5 hPa 0,0 l/m 1,9 km/h NO 12,6 C 15,3 C 1,1 km/h
05.05.2015 07:00 16,9 C 82 % 1000,3 hPa 0,0 l/m 0,0 km/h O 13,8 C 16,9 C 0,0 km/h
05.05.2015 08:00 17,5 C 82 % 1002,1 hPa 0,0 l/m 0,0 km/h W-NW 14,4 C 17,5 C 0,0 km/h
05.05.2015 09:00 19,3 C 74 % 1003,0 hPa 0,0 l/m 0,0 km/h S 14,5 C 19,3 C 0,0 km/h
05.05.2015 10:00 22,2 C 60 % 1003,9 hPa 0,0 l/m 14,9 km/h S-SW 14,1 C 19,9 C 8,3 km/h
05.05.2015 11:00 21,5 C 61 % 1005,0 hPa 0,0 l/m 18,1 km/h S-SW 13,7 C 18,5 C 10,1 km/h
05.05.2015 12:00 20,8 C 64 % 1005,7 hPa 0,0 l/m 20,7 km/h S 13,7 C 17,1 C 11,5 km/h
05.05.2015 13:00 20,1 C 64 % 1006,2 hPa 0,0 l/m 18,1 km/h S 13,1 C 16,7 C 10,1 km/h
05.05.2015 14:00 20,1 C 62 % 1006,8 hPa 0,0 l/m 20,7 km/h S 12,6 C 16,2 C 11,5 km/h
05.05.2015 15:00 20,0 C 61 % 1007,1 hPa 0,0 l/m 23,3 km/h SW 12,2 C 15,6 C 13,0 km/h
05.05.2015 16:00 18,4 C 69 % 1007,6 hPa 0,0 l/m 9,7 km/h W-SW 12,6 C 17,0 C 5,4 km/h
05.05.2015 17:00 17,6 C 69 % 1008,1 hPa 0,0 l/m 5,2 km/h S 11,8 C 17,6 C 2,9 km/h
05.05.2015 18:00 16,2 C 76 % 1008,8 hPa 0,0 l/m 13,0 km/h S 12,0 C 13,3 C 7,2 km/h
05.05.2015 19:00 15,0 C 82 % 1009,4 hPa 0,0 l/m 7,8 km/h SO 12,0 C 14,2 C 4,3 km/h
05.05.2015 20:00 15,1 C 82 % 1010,0 hPa 0,0 l/m 18,8 km/h S-SO 12,0 C 10,2 C 10,4 km/h
05.05.2015 21:00 14,5 C 83 % 1010,4 hPa 0,4 l/m 1,9 km/h S-SW 11,6 C 14,5 C 1,1 km/h
05.05.2015 22:00 14,1 C 83 % 1010,6 hPa 0,0 l/m 0,0 km/h NO 11,3 C 14,1 C 0,0 km/h
05.05.2015 23:00 13,2 C 84 % 1011,3 hPa 0,0 l/m 0,0 km/h NO 10,6 C 13,2 C 0,0 km/h
06.05.2015 00:00 12,8 C 84 % 1011,4 hPa 0,0 l/m 0,0 km/h NO 10,2 C 12,8 C 0,0 km/h
06.05.2015 01:00 12,8 C 84 % 1012,1 hPa 0,0 l/m 0,0 km/h SO 10,2 C 12,8 C 0,0 km/h
06.05.2015 02:00 12,8 C 83 % 1011,9 hPa 0,0 l/m 0,0 km/h SO 10,0 C 12,8 C 0,0 km/h
06.05.2015 03:00 12,8 C 83 % 1012,1 hPa 0,0 l/m 0,0 km/h SO 10,0 C 12,8 C 0,0 km/h
06.05.2015 04:00 12,4 C 82 % 1012,0 hPa 0,0 l/m 0,0 km/h O-NO 9,4 C 12,4 C 0,0 km/h
06.05.2015 05:00 11,7 C 82 % 1012,1 hPa 0,0 l/m 0,0 km/h S 8,7 C 11,7 C 0,0 km/h
06.05.2015 06:00 11,0 C 82 % 1013,5 hPa 0,0 l/m 0,0 km/h S 8,0 C 11,0 C 0,0 km/h
06.05.2015 07:00 12,4 C 82 % 1013,9 hPa 0,0 l/m 0,0 km/h S 9,4 C 12,4 C 0,0 km/h
06.05.2015 08:00 13,6 C 84 % 1014,2 hPa 0,0 l/m 0,0 km/h S 10,9 C 13,6 C 0,0 km/h
06.05.2015 09:00 16,2 C 77 % 1014,4 hPa 0,0 l/m 3,2 km/h W 12,2 C 16,2 C 1,8 km/h
06.05.2015 10:00 20,3 C 56 % 1014,4 hPa 0,0 l/m 9,1 km/h S 11,2 C 19,3 C 5,0 km/h
06.05.2015 11:00 19,6 C 52 % 1014,3 hPa 0,0 l/m 11,0 km/h W 9,5 C 17,9 C 6,1 km/h
06.05.2015 12:00 20,9 C 50 % 1013,9 hPa 0,0 l/m 11,0 km/h W 10,1 C 19,3 C 6,1 km/h
06.05.2015 13:00 20,8 C 47 % 1013,6 hPa 0,0 l/m 13,6 km/h SW 9,1 C 18,5 C 7,6 km/h
06.05.2015 14:00 21,1 C 45 % 1013,4 hPa 0,0 l/m 24,0 km/h W-SW 8,7 C 17,0 C 13,3 km/h
06.05.2015 15:00 22,9 C 42 % 1012,8 hPa 0,0 l/m 20,1 km/h W-SW 9,3 C 19,9 C 11,2 km/h
06.05.2015 16:00 21,3 C 43 % 1012,6 hPa 0,0 l/m 20,7 km/h W 8,2 C 17,8 C 11,5 km/h
06.05.2015 17:00 19,4 C 49 % 1012,9 hPa 0,0 l/m 3,2 km/h S-SW 8,4 C 19,4 C 1,8 km/h
06.05.2015 18:00 18,3 C 49 % 1013,4 hPa 0,0 l/m 24,6 km/h W-SW 7,4 C 13,1 C 13,7 km/h
06.05.2015 19:00 18,1 C 48 % 1014,2 hPa 0,0 l/m 14,9 km/h S 6,9 C 15,0 C 8,3 km/h
06.05.2015 20:00 14,7 C 58 % 1014,9 hPa 0,0 l/m 16,8 km/h W-SW 6,5 C 10,3 C 9,4 km/h
06.05.2015 21:00 12,9 C 65 % 1015,7 hPa 0,0 l/m 2,6 km/h W-SW 6,5 C 12,9 C 1,4 km/h
06.05.2015 22:00 11,0 C 69 % 1016,5 hPa 0,0 l/m 0,0 km/h N-NW 5,5 C 11,0 C 0,0 km/h
06.05.2015 23:00 9,5 C 76 % 1017,0 hPa 0,0 l/m 0,0 km/h N 5,5 C 9,5 C 0,0 km/h
07.05.2015 00:00 9,1 C 79 % 1017,5 hPa 0,0 l/m 0,0 km/h O-SO 5,7 C 9,1 C 0,0 km/h
07.05.2015 01:00 8,3 C 80 % 1017,7 hPa 0,0 l/m 0,0 km/h O-SO 5,1 C 8,3 C 0,0 km/h
07.05.2015 02:00 6,8 C 83 % 1017,8 hPa 0,0 l/m 0,0 km/h O-NO 4,1 C 6,8 C 0,0 km/h
07.05.2015 03:00 6,9 C 84 % 1017,9 hPa 0,0 l/m 0,0 km/h O-NO 4,4 C 6,9 C 0,0 km/h
07.05.2015 04:00 5,5 C 85 % 1018,1 hPa 0,0 l/m 0,0 km/h NO 3,2 C 5,5 C 0,0 km/h
07.05.2015 05:00 5,6 C 85 % 1018,3 hPa 0,0 l/m 0,0 km/h N-NO 3,3 C 5,6 C 0,0 km/h
07.05.2015 06:00 6,6 C 85 % 1018,4 hPa 0,0 l/m 0,0 km/h N-NO 4,3 C 6,6 C 0,0 km/h
07.05.2015 07:00 9,4 C 84 % 1018,9 hPa 0,0 l/m 0,0 km/h W 6,8 C 9,4 C 0,0 km/h
07.05.2015 08:00 17,7 C 63 % 1019,3 hPa 0,0 l/m 3,9 km/h S-SO 10,6 C 17,7 C 2,2 km/h
07.05.2015 09:00 19,7 C 50 % 1019,3 hPa 0,0 l/m 6,5 km/h W 9,0 C 19,7 C 3,6 km/h
07.05.2015 10:00 20,6 C 45 % 1018,7 hPa 0,0 l/m 0,0 km/h SW 8,2 C 20,6 C 0,0 km/h
07.05.2015 11:00 17,3 C 50 % 1018,8 hPa 0,0 l/m 0,6 km/h SW 6,8 C 17,3 C 0,4 km/h
07.05.2015 12:00 19,4 C 46 % 1018,2 hPa 0,0 l/m 0,0 km/h S 7,5 C 19,4 C 0,0 km/h
07.05.2015 13:00 20,6 C 44 % 1017,5 hPa 0,0 l/m 0,0 km/h S-SO 7,9 C 20,6 C 0,0 km/h
07.05.2015 14:00 20,3 C 43 % 1017,3 hPa 0,0 l/m 3,9 km/h W 7,3 C 20,3 C 2,2 km/h
07.05.2015 15:00 21,7 C 41 % 1016,8 hPa 0,0 l/m 1,9 km/h N-NW 7,9 C 21,7 C 1,1 km/h
07.05.2015 16:00 24,4 C 34 % 1016,3 hPa 0,0 l/m 0,0 km/h N 7,5 C 24,4 C 0,0 km/h
07.05.2015 17:00 25,5 C 29 % 1015,8 hPa 0,0 l/m 0,0 km/h N 6,1 C 25,5 C 0,0 km/h
07.05.2015 18:00 22,5 C 34 % 1015,6 hPa 0,0 l/m 5,2 km/h NW 5,9 C 22,5 C 2,9 km/h
07.05.2015 19:00 17,7 C 49 % 1015,1 hPa 0,0 l/m 0,0 km/h NW 6,9 C 17,7 C 0,0 km/h
07.05.2015 20:00 13,6 C 63 % 1015,5 hPa 0,0 l/m 0,0 km/h N 6,7 C 13,6 C 0,0 km/h
07.05.2015 21:00 12,2 C 67 % 1015,7 hPa 0,0 l/m 0,0 km/h O-SO 6,3 C 12,2 C 0,0 km/h
07.05.2015 22:00 11,6 C 70 % 1015,5 hPa 0,0 l/m 0,6 km/h O-SO 6,3 C 11,6 C 0,4 km/h
07.05.2015 23:00 11,3 C 71 % 1015,4 hPa 0,0 l/m 0,0 km/h SO 6,2 C 11,3 C 0,0 km/h
08.05.2015 00:00 10,7 C 72 % 1015,1 hPa 0,0 l/m 0,0 km/h O-SO 5,9 C 10,7 C 0,0 km/h
08.05.2015 01:00 10,9 C 72 % 1015,0 hPa 0,0 l/m 0,0 km/h O-NO 6,1 C 10,9 C 0,0 km/h
08.05.2015 02:00 9,9 C 74 % 1014,6 hPa 0,0 l/m 0,0 km/h O-NO 5,5 C 9,9 C 0,0 km/h
08.05.2015 03:00 7,8 C 79 % 1014,3 hPa 0,0 l/m 0,0 km/h O-NO 4,4 C 7,8 C 0,0 km/h
08.05.2015 04:00 7,2 C 80 % 1013,8 hPa 0,0 l/m 0,0 km/h NO 4,0 C 7,2 C 0,0 km/h
08.05.2015 05:00 6,2 C 83 % 1013,6 hPa 0,0 l/m 0,0 km/h NO 3,5 C 6,2 C 0,0 km/h
08.05.2015 06:00 6,2 C 84 % 1013,4 hPa 0,0 l/m 0,0 km/h O-SO 3,7 C 6,2 C 0,0 km/h
08.05.2015 07:00 13,8 C 81 % 1013,4 hPa 0,0 l/m 0,0 km/h SO 10,6 C 13,8 C 0,0 km/h
08.05.2015 08:00 19,9 C 54 % 1013,4 hPa 0,0 l/m 0,0 km/h N 10,3 C 19,9 C 0,0 km/h
08.05.2015 09:00 20,2 C 52 % 1013,0 hPa 0,0 l/m 0,0 km/h W-SW 10,0 C 20,2 C 0,0 km/h
08.05.2015 10:00 23,9 C 46 % 1012,3 hPa 0,0 l/m 0,0 km/h N-NW 11,6 C 23,9 C 0,0 km/h
08.05.2015 11:00 22,1 C 46 % 1012,2 hPa 0,0 l/m 0,0 km/h W-SW 9,9 C 22,1 C 0,0 km/h
08.05.2015 12:00 23,8 C 42 % 1012,0 hPa 0,0 l/m 0,0 km/h W 10,1 C 23,8 C 0,0 km/h
08.05.2015 13:00 25,7 C 33 % 1011,7 hPa 0,0 l/m 0,0 km/h S 8,2 C 25,7 C 0,0 km/h
08.05.2015 14:00 26,9 C 34 % 1010,9 hPa 0,0 l/m 1,9 km/h W 9,7 C 26,9 C 1,1 km/h
08.05.2015 15:00 26,9 C 34 % 1011,3 hPa 0,0 l/m 11,7 km/h W-NW 9,7 C 26,0 C 6,5 km/h
08.05.2015 16:00 24,9 C 36 % 1010,9 hPa 0,0 l/m 0,0 km/h W 8,8 C 24,9 C 0,0 km/h
08.05.2015 17:00 24,3 C 40 % 1011,2 hPa 0,0 l/m 2,6 km/h W-SW 9,8 C 24,3 C 1,4 km/h
08.05.2015 18:00 21,1 C 45 % 1011,7 hPa 0,0 l/m 24,0 km/h SW 8,7 C 17,0 C 13,3 km/h
08.05.2015 19:00 18,4 C 53 % 1012,8 hPa 0,0 l/m 31,1 km/h SW 8,6 C 12,3 C 17,3 km/h
08.05.2015 20:00 17,1 C 60 % 1013,8 hPa 0,0 l/m 7,1 km/h W 9,3 C 16,7 C 4,0 km/h
08.05.2015 21:00 16,1 C 67 % 1014,4 hPa 0,0 l/m 3,9 km/h W-SW 10,0 C 16,1 C 2,2 km/h
08.05.2015 22:00 15,8 C 70 % 1015,5 hPa 0,0 l/m 8,4 km/h S 10,3 C 14,7 C 4,7 km/h
08.05.2015 23:00 14,7 C 74 % 1015,4 hPa 0,0 l/m 0,0 km/h S-SO 10,1 C 14,7 C 0,0 km/h
09.05.2015 00:00 11,9 C 78 % 1015,8 hPa 0,0 l/m 0,0 km/h NO 8,2 C 11,9 C 0,0 km/h
09.05.2015 01:00 11,4 C 83 % 1016,6 hPa 0,0 l/m 0,0 km/h N-NO 8,6 C 11,4 C 0,0 km/h
09.05.2015 02:00 12,3 C 84 % 1016,4 hPa 0,0 l/m 0,0 km/h N-NO 9,7 C 12,3 C 0,0 km/h
09.05.2015 03:00 12,4 C 84 % 1017,0 hPa 0,0 l/m 0,0 km/h S 9,8 C 12,4 C 0,0 km/h
09.05.2015 04:00 11,1 C 83 % 1017,2 hPa 0,0 l/m 0,0 km/h SO 8,3 C 11,1 C 0,0 km/h
09.05.2015 05:00 11,4 C 84 % 1017,5 hPa 0,0 l/m 0,0 km/h O 8,8 C 11,4 C 0,0 km/h
09.05.2015 06:00 12,2 C 84 % 1017,8 hPa 0,0 l/m 0,0 km/h SW 9,6 C 12,2 C 0,0 km/h
09.05.2015 07:00 14,6 C 83 % 1018,2 hPa 0,0 l/m 1,9 km/h S-SW 11,7 C 14,6 C 1,1 km/h
09.05.2015 08:00 15,1 C 82 % 1018,8 hPa 0,0 l/m 5,8 km/h SW 12,0 C 15,1 C 3,2 km/h
09.05.2015 09:00 16,4 C 79 % 1019,0 hPa 0,0 l/m 0,0 km/h SW 12,7 C 16,4 C 0,0 km/h
09.05.2015 10:00 18,2 C 73 % 1019,3 hPa 0,0 l/m 26,6 km/h S-SW 13,3 C 12,7 C 14,8 km/h
09.05.2015 11:00 18,8 C 71 % 1019,5 hPa 0,0 l/m 2,6 km/h S-SW 13,4 C 18,8 C 1,4 km/h
09.05.2015 12:00 20,6 C 63 % 1019,6 hPa 0,0 l/m 6,5 km/h S-SW 13,3 C 20,6 C 3,6 km/h
09.05.2015 13:00 20,7 C 60 % 1019,6 hPa 0,0 l/m 25,3 km/h W-SW 12,7 C 16,3 C 14,0 km/h
09.05.2015 14:00 21,5 C 58 % 1019,3 hPa 0,0 l/m 13,6 km/h W-SW 12,9 C 19,4 C 7,6 km/h
09.05.2015 15:00 22,9 C 52 % 1019,0 hPa 0,0 l/m 7,8 km/h W 12,5 C 22,5 C 4,3 km/h
09.05.2015 16:00 20,2 C 53 % 1019,1 hPa 0,0 l/m 13,0 km/h W-SW 10,3 C 18,0 C 7,2 km/h
09.05.2015 17:00 21,9 C 47 % 1019,2 hPa 0,0 l/m 9,1 km/h W-SW 10,1 C 21,0 C 5,0 km/h
09.05.2015 18:00 19,2 C 55 % 1019,3 hPa 0,0 l/m 18,8 km/h S-SW 9,9 C 15,4 C 10,4 km/h
09.05.2015 19:00 19,8 C 56 % 1019,7 hPa 0,0 l/m 0,0 km/h S-SW 10,8 C 19,8 C 0,0 km/h
09.05.2015 20:00 17,4 C 61 % 1020,6 hPa 0,0 l/m 1,3 km/h W-SW 9,8 C 17,4 C 0,7 km/h
09.05.2015 21:00 15,4 C 66 % 1021,7 hPa 0,0 l/m 0,0 km/h W 9,1 C 15,4 C 0,0 km/h
09.05.2015 22:00 14,9 C 70 % 1022,5 hPa 0,0 l/m 0,0 km/h S 9,5 C 14,9 C 0,0 km/h
09.05.2015 23:00 13,2 C 74 % 1023,1 hPa 0,0 l/m 0,0 km/h S 8,7 C 13,2 C 0,0 km/h
10.05.2015 00:00 11,8 C 80 % 1023,4 hPa 0,0 l/m 0,0 km/h N-NO 8,5 C 11,8 C 0,0 km/h
10.05.2015 01:00 10,9 C 83 % 1024,3 hPa 0,0 l/m 0,0 km/h O-NO 8,1 C 10,9 C 0,0 km/h
10.05.2015 02:00 11,1 C 83 % 1024,3 hPa 0,0 l/m 0,0 km/h O-NO 8,3 C 11,1 C 0,0 km/h
10.05.2015 03:00 9,0 C 84 % 1024,3 hPa 0,0 l/m 0,0 km/h O-SO 6,4 C 9,0 C 0,0 km/h
10.05.2015 04:00 8,1 C 85 % 1024,1 hPa 0,0 l/m 0,0 km/h O-SO 5,7 C 8,1 C 0,0 km/h
10.05.2015 05:00 7,5 C 85 % 1024,5 hPa 0,0 l/m 0,0 km/h O-SO 5,1 C 7,5 C 0,0 km/h
10.05.2015 06:00 7,9 C 85 % 1025,2 hPa 0,0 l/m 0,0 km/h O 5,5 C 7,9 C 0,0 km/h
10.05.2015 07:00 9,6 C 82 % 1025,3 hPa 0,0 l/m 0,0 km/h O-SO 6,7 C 9,6 C 0,0 km/h
10.05.2015 08:00 16,8 C 78 % 1025,4 hPa 0,0 l/m 0,0 km/h W 12,9 C 16,8 C 0,0 km/h
10.05.2015 09:00 23,5 C 50 % 1025,6 hPa 0,0 l/m 0,0 km/h N-NO 12,5 C 23,5 C 0,0 km/h
10.05.2015 10:00 24,3 C 45 % 1025,7 hPa 0,0 l/m 0,0 km/h W-NW 11,6 C 24,3 C 0,0 km/h
10.05.2015 11:00 23,7 C 45 % 1025,3 hPa 0,0 l/m 0,0 km/h N-NO 11,1 C 23,7 C 0,0 km/h
10.05.2015 12:00 23,4 C 45 % 1024,9 hPa 0,0 l/m 0,0 km/h N-NW 10,8 C 23,4 C 0,0 km/h
10.05.2015 13:00 24,9 C 42 % 1024,5 hPa 0,0 l/m 0,0 km/h N 11,1 C 24,9 C 0,0 km/h
10.05.2015 14:00 26,9 C 37 % 1024,3 hPa 0,0 l/m 3,9 km/h W 11,0 C 26,9 C 2,2 km/h
10.05.2015 15:00 25,8 C 37 % 1023,8 hPa 0,0 l/m 3,9 km/h W 10,0 C 25,8 C 2,2 km/h
10.05.2015 16:00 27,9 C 33 % 1023,4 hPa 0,0 l/m 0,0 km/h N 10,1 C 27,9 C 0,0 km/h
10.05.2015 17:00 30,2 C 28 % 1023,2 hPa 0,0 l/m 0,0 km/h N 9,6 C 30,2 C 0,0 km/h
10.05.2015 18:00 31,6 C 28 % 1022,8 hPa 0,0 l/m 0,0 km/h N 10,8 C 31,6 C 0,0 km/h
10.05.2015 19:00 22,8 C 39 % 1022,6 hPa 0,0 l/m 0,0 km/h N 8,1 C 22,8 C 0,0 km/h
10.05.2015 20:00 16,6 C 57 % 1022,7 hPa 0,0 l/m 0,0 km/h N-NO 8,0 C 16,6 C 0,0 km/h
10.05.2015 21:00 13,6 C 68 % 1023,2 hPa 0,0 l/m 0,0 km/h SO 7,8 C 13,6 C 0,0 km/h
10.05.2015 22:00 13,3 C 73 % 1023,1 hPa 0,0 l/m 0,6 km/h N-NO 8,6 C 13,3 C 0,4 km/h
10.05.2015 23:00 13,0 C 74 % 1022,9 hPa 0,0 l/m 0,0 km/h N-NO 8,5 C 13,0 C 0,0 km/h
Min-Datum _ 07.05.15 10.05.15 05.05.15 - 04.05.15 - 07.05.15 07.05.15 04.05.15
_ Min-Zeit 04:51 17:51 06:51 - 00:51 - 04:51 04:51 00:51
Minimum _ 5,5 C 28 % 999,5 hPa - 0,0 km/h - 3,2 C 5,5 C 0,0 km/h
Max-Datum _ 10.05.15 07.05.15 10.05.15 04.05.15 08.05.15 - 04.05.15 10.05.15 08.05.15
_ Max-Zeit 18:51 04:51 10:51 09:51 19:51 - 16:51 18:51 19:51
Maximum _ 31,6 C 85 % 1025,7 hPa 0,4 l/m 31,1 km/h
SW
- 18,1 C 31,6 C 17,3 km/h
SW
Durchschnitt _ 17,1 C 65 % 1014,2 hPa #0,8 l/m 3,9 km/h W 9,9 C 16,5 C 2,2 km/h
www.sexauwetter.de